Flight Track Log - Related Links

Times and Time Zones

All times are in EDT time to prevent confusion due to time zone crossing. See the GJS3618 flight status page for this flight to view local times or setup timezone preferences in your user account.

Time Position Orientation Groundspeed Altitude Reporting Facility
EDT Latitude Longitude Course Direction KTS MPH feet Rate Location/Type
Wed 07:20:44 AM 41.2928 -95.8892 278° West 151 174 1,600  Level Minneapolis Center
Wed 07:22:08 AM 41.2492 -95.9175 206° Southwest 207 238 3,600 1,614 Climbing Minneapolis Center
Wed 07:23:09 AM 41.2525 -95.9989 273° West 215 247 5,500 1,835 Climbing Minneapolis Center
Wed 07:24:00 AM 41.3167 -96.4426 270° West  Level FlightAware Approximate
Wed 07:24:09 AM 41.2597 -96.1033 275° West 261 300 7,300  Level Minneapolis Center
Wed 07:25:00 AM 41.3167 -96.5826 270° West  Level FlightAware Approximate
Wed 07:25:10 AM 41.2664 -96.2167 275° West 291 335 9,500  Level Minneapolis Center
Wed 07:26:00 AM 41.3256 -96.7219 278° West  Level FlightAware Approximate
Wed 07:26:11 AM 41.2711 -96.3417 273° West 328 377 11,600  Level Minneapolis Center
Wed 07:27:12 AM 41.2586 -96.4692 263° West 343 395 13,500 1,820 Climbing Minneapolis Center
Wed 07:28:13 AM 41.2464 -96.6014 263° West 355 409 15,300 1,785 Climbing Minneapolis Center
Wed 07:29:13 AM 41.2333 -96.7375 263° West 367 422 17,100 1,736 Climbing Minneapolis Center
Wed 07:30:14 AM 41.2206 -96.8742 263° West 372 428 18,800 1,525 Climbing Minneapolis Center
Wed 07:31:15 AM 41.2075 -97.0139 263° West 378 435 20,200 1,279 Climbing Minneapolis Center
Wed 07:32:16 AM 41.1928 -97.1572 262° West 389 448 21,400 1,180 Climbing Minneapolis Center
Wed 07:33:17 AM 41.1772 -97.3053 262° West 400 460 22,600 1,180 Climbing Minneapolis Center
Wed 07:34:18 AM 41.1628 -97.4536 263° West 410 472 23,800 1,180 Climbing Minneapolis Center
Wed 07:35:19 AM 41.1469 -97.6061 262° West 416 479 25,000 1,190 Climbing Minneapolis Center
Wed 07:36:19 AM 41.1303 -97.7592 262° West 418 481 26,200 1,328 Climbing Minneapolis Center
Wed 07:37:21 AM 41.1103 -97.9461 262° West 424 488 27,700 1,268 Climbing Minneapolis Center
Wed 07:38:22 AM 41.0928 -98.1036 262° West 429 494 28,800 1,041 Climbing Minneapolis Center
Wed 07:39:22 AM 41.0758 -98.2617 262° West 431 496 29,800 992 Climbing Minneapolis Center
Wed 07:40:23 AM 41.0578 -98.4211 262° West 435 501 30,800 984 Climbing Minneapolis Center
Wed 07:41:24 AM 41.0400 -98.5858 262° West 441 507 31,800 984 Climbing Minneapolis Center
Wed 07:42:25 AM 41.0192 -98.7461 260° West 443 510 32,800 836 Climbing Minneapolis Center
Wed 07:43:26 AM 40.9997 -98.9117 261° West 452 520 33,500 639 Climbing Minneapolis Center
Wed 07:44:27 AM 40.9828 -99.0775 262° West 455 524 34,100 679 Climbing Minneapolis Center
Wed 07:45:12 AM 40.9694 -99.1886 261° West 457 526 34,700 849 Climbing Denver Center
Wed 07:46:13 AM 40.9475 -99.3525 260° West 455 524 35,600 942 Climbing Denver Center
Wed 07:47:13 AM 40.9233 -99.5158 259° West 452 520 36,600 950 Climbing Denver Center
Wed 07:48:13 AM 40.8997 -99.6781 259° West 450 518 37,500 694 Climbing Denver Center
Wed 07:49:14 AM 40.8725 -99.8653 259° West 442 509 38,000 248 Climbing Denver Center
Wed 07:50:14 AM 40.8497 -100.0144 259° West 435 501 38,000  Level Denver Center
Wed 07:51:14 AM 40.8267 -100.1650 259° West 436 502 38,000  Level Denver Center
Wed 07:52:14 AM 40.8036 -100.3156 259° West 436 502 38,000  Level Denver Center
Wed 07:53:15 AM 40.7764 -100.4911 258° West 437 503 38,000  Level Denver Center
Wed 07:54:15 AM 40.7503 -100.6425 257° West 436 502 38,000  Level Denver Center
Wed 07:55:15 AM 40.7250 -100.8047 258° West 455 524 38,000  Level Denver Center
Wed 07:56:16 AM 40.7006 -100.9622 258° West 454 522 38,000  Level Denver Center
Wed 07:57:16 AM 40.6764 -101.1161 258° West 449 517 38,000  Level Denver Center
Wed 07:58:16 AM 40.6475 -101.2967 258° West 451 519 38,000  Level Denver Center
Wed 07:59:17 AM 40.6225 -101.4525 258° West 454 522 38,000  Level Denver Center
Wed 08:00:17 AM 40.5964 -101.6081 258° West 455 524 38,000  Level Denver Center
Wed 08:01:18 AM 40.5669 -101.7872 258° West 451 519 38,000  Level Denver Center
Wed 08:02:18 AM 40.5408 -101.9403 257° West 449 517 38,000  Level Denver Center
Wed 08:03:19 AM 40.5153 -102.0925 258° West 448 516 38,000 -645 Level Denver Center
Wed 08:04:19 AM 40.4858 -102.2719 258° West 452 520 36,700 -1,488 Descending Denver Center
Wed 08:05:20 AM 40.4578 -102.4258 257° West 454 522 35,000 -1,736 Descending Denver Center
Wed 08:06:20 AM 40.4317 -102.5842 258° West 462 532 33,200 -1,900 Descending Denver Center
Wed 08:07:20 AM 40.4019 -102.7506 257° West 457 526 31,200 -1,934 Descending Denver Center
Wed 08:08:21 AM 40.3739 -102.9075 257° West 445 512 29,300 -1,884 Descending Denver Center
Wed 08:09:21 AM 40.3478 -103.0603 257° West 433 498 27,400 -1,934 Descending Denver Center
Wed 08:10:22 AM 40.3208 -103.2061 256° West 414 476 25,400 -1,884 Descending Denver Center
Wed 08:11:22 AM 40.2961 -103.3450 257° West 394 453 23,600 -1,835 Descending Denver Center
Wed 08:12:23 AM 40.2717 -103.4808 257° West 386 444 21,700 -1,934 Descending Denver Center
Wed 08:13:23 AM 40.2464 -103.6158 256° West 385 443 19,700 -1,934 Descending Denver Center
Wed 08:14:24 AM 40.2167 -103.7614 255° West 388 447 17,800 -1,869 Descending Denver Center
Wed 08:15:25 AM 40.2069 -103.8961 265° West 375 432 15,900 -1,884 Descending Denver Center
Wed 08:16:25 AM 40.1978 -104.0300 265° West 372 428 14,000 -1,438 Descending Denver Center
Wed 08:17:26 AM 40.1919 -104.1686 267° West 384 442 13,000 -1,041 Descending Denver Center
Wed 08:18:26 AM 40.1822 -104.3144 265° West 376 433 11,900 -1,041 Descending Denver Center
Wed 08:19:27 AM 40.1328 -104.4194 238° Southwest 333 383 10,900 -1,328 Descending Denver Center
Wed 08:20:28 AM 40.0831 -104.5069 233° Southwest 297 342 9,200 -1,736 Descending Denver Center
Wed 08:21:28 AM 40.0344 -104.5931 234° Southwest 295 339 7,400 -1,091 Descending Denver Center
Wed 08:22:29 AM 39.9978 -104.6650 236° Southwest 236 272 7,000 -443 Descending Denver Center
Wed 08:23:30 AM 39.9583 -104.6856 202° Southwest 167 192 6,500 -645 Descending Denver Center
Wed 08:24:30 AM 39.9114 -104.6867 181° South 158 182 5,700 -595 Descending Denver Center
Wed 08:25:31 AM 39.8794 -104.6878 182° South 133 153 5,300 -393 Descending Denver Center

Login

Don't have an account? Register now (free) for customized features, flight alerts, and more!